Time;durP1;ratioP1;P1;durP2;ratioP2;P2;SDS_P1;SDS_P2;PMS_P1;PMS_P2;Temp;Humidity;BMP_temperature;BMP_pressure;BME280_temperature;BME280_humidity;BME280_pressure;Samples;Min_cycle;Max_cycle;Signal;HPM_P1;HPM_P2
2023/08/04 00:01:19;;;;;;;8.65;2.30;;;;;;;14.89;100.00;100703.03;5013424;28;20033;-73
2023/08/04 00:03:44;;;;;;;11.82;2.97;;;;;;;14.87;100.00;100710.25;5027098;28;20037;-73
2023/08/04 00:06:10;;;;;;;11.32;2.28;;;;;;;14.84;100.00;100707.19;5028976;28;20042;-73
2023/08/04 00:08:36;;;;;;;8.52;2.05;;;;;;;14.81;100.00;100707.59;5031325;28;20036;-73
2023/08/04 00:11:02;;;;;;;8.93;2.65;;;;;;;14.78;100.00;100706.94;5028446;28;20722;-73
2023/08/04 00:13:29;;;;;;;9.88;2.50;;;;;;;14.79;100.00;100700.75;5027192;28;20144;-73
2023/08/04 00:16:02;;;;;;;5.55;2.63;;;;;;;14.81;100.00;100713.59;5026112;28;20036;-74
2023/08/04 00:18:28;;;;;;;10.93;2.33;;;;;;;14.81;100.00;100712.81;5025911;28;20033;-73
2023/08/04 00:20:53;;;;;;;8.82;2.25;;;;;;;14.79;100.00;100711.19;5025641;28;20535;-73
2023/08/04 00:23:19;;;;;;;11.00;2.08;;;;;;;14.77;100.00;100720.19;5021793;28;20072;-73
2023/08/04 00:25:44;;;;;;;10.50;2.20;;;;;;;14.75;100.00;100722.19;5017486;28;20049;-73
2023/08/04 00:28:09;;;;;;;9.68;2.50;;;;;;;14.73;100.00;100718.94;5024425;28;20034;-73
2023/08/04 00:30:35;;;;;;;5.50;2.10;;;;;;;14.68;100.00;100716.88;5022426;28;21736;-73
2023/08/04 00:33:01;;;;;;;7.68;1.88;;;;;;;14.64;100.00;100715.66;5022113;28;20096;-73
2023/08/04 00:35:26;;;;;;;8.85;1.95;;;;;;;14.62;100.00;100719.41;5027814;28;20029;-73
2023/08/04 00:37:52;;;;;;;8.90;2.83;;;;;;;14.60;100.00;100719.63;5030245;28;20041;-73
2023/08/04 00:40:17;;;;;;;5.55;2.47;;;;;;;14.58;100.00;100724.22;5030269;28;20033;-73
2023/08/04 00:42:43;;;;;;;9.43;2.60;;;;;;;14.56;100.00;100721.75;5010342;28;20393;-73
2023/08/04 00:45:09;;;;;;;13.88;2.55;;;;;;;14.57;100.00;100725.19;5028306;28;20042;-73
2023/08/04 00:47:35;;;;;;;10.25;2.60;;;;;;;14.57;100.00;100726.00;5025529;28;20036;-73
2023/08/04 00:50:06;;;;;;;8.65;2.58;;;;;;;14.55;100.00;100733.16;5030231;28;20056;-73
2023/08/04 00:52:32;;;;;;;6.10;2.65;;;;;;;14.52;100.00;100738.78;5014041;28;20034;-73
2023/08/04 00:54:57;;;;;;;7.88;2.63;;;;;;;14.54;100.00;100731.56;5013627;28;20517;-73
2023/08/04 00:57:23;;;;;;;14.57;2.88;;;;;;;14.53;100.00;100737.75;5036890;28;20033;-73
2023/08/04 00:59:49;;;;;;;12.38;3.97;;;;;;;14.48;100.00;100737.50;5024657;28;20159;-73
2023/08/04 01:02:15;;;;;;;8.77;2.78;;;;;;;14.48;100.00;100736.69;5027333;28;20029;-73
2023/08/04 01:04:40;;;;;;;10.88;3.65;;;;;;;14.46;100.00;100742.09;5008632;28;20127;-73
2023/08/04 01:07:20;;;;;;;15.77;3.53;;;;;;;14.45;100.00;100740.50;5006565;28;20474;-73
2023/08/04 01:10:10;;;;;;;7.00;2.95;;;;;;;14.46;100.00;100749.91;5021121;28;20040;-73
2023/08/04 01:13:03;;;;;;;9.68;3.88;;;;;;;14.48;100.00;100747.13;5027701;28;20029;-73
2023/08/04 01:15:29;;;;;;;12.57;3.72;;;;;;;14.46;100.00;100749.91;5029928;28;20670;-72
2023/08/04 01:17:55;;;;;;;9.18;3.70;;;;;;;14.45;100.00;100742.28;5029768;28;20422;-73
2023/08/04 01:20:22;;;;;;;13.02;4.35;;;;;;;14.49;100.00;100738.31;5029291;28;20177;-73
2023/08/04 01:22:48;;;;;;;18.33;4.38;;;;;;;14.52;100.00;100740.56;5032672;28;20030;-73
2023/08/04 01:25:13;;;;;;;8.20;3.70;;;;;;;14.44;100.00;100738.06;5034606;28;20025;-72
2023/08/04 01:27:48;;;;;;;14.60;4.28;;;;;;;14.45;100.00;100735.28;5025682;28;20102;-73
2023/08/04 01:30:20;;;;;;;8.82;4.03;;;;;;;14.43;100.00;100745.09;5025962;28;20544;-72
2023/08/04 01:32:46;;;;;;;15.17;3.77;;;;;;;14.43;100.00;100745.09;5012041;28;20031;-73
2023/08/04 01:35:13;;;;;;;16.77;4.07;;;;;;;14.43;100.00;100746.88;5014902;28;21368;-72
2023/08/04 01:37:38;;;;;;;12.88;4.03;;;;;;;14.47;100.00;100740.31;5031632;28;20622;-73
2023/08/04 01:40:04;;;;;;;20.00;4.93;;;;;;;14.50;100.00;100742.53;5030138;28;20030;-73
2023/08/04 01:42:30;;;;;;;10.65;4.28;;;;;;;14.42;100.00;100748.66;5015610;28;20029;-72
2023/08/04 01:44:55;;;;;;;12.77;3.90;;;;;;;14.42;100.00;100748.66;5013819;28;20029;-73
2023/08/04 01:47:20;;;;;;;16.02;3.90;;;;;;;14.45;100.00;100763.13;5011299;28;20092;-73
2023/08/04 01:49:46;;;;;;;17.35;5.53;;;;;;;14.38;100.00;100761.25;5020197;28;20033;-73
2023/08/04 01:52:11;;;;;;;10.35;4.80;;;;;;;14.40;100.00;100761.09;5030105;28;20030;-73
2023/08/04 01:54:37;;;;;;;15.55;5.43;;;;;;;14.35;100.00;100766.88;5013820;28;20793;-73
2023/08/04 01:57:03;;;;;;;16.67;5.20;;;;;;;14.33;100.00;100762.81;5025847;28;20030;-73
2023/08/04 01:59:28;;;;;;;16.63;4.65;;;;;;;14.33;100.00;100763.59;5031579;28;20025;-72
2023/08/04 02:01:53;;;;;;;16.10;4.80;;;;;;;14.31;100.00;100767.38;5031292;28;20040;-73
2023/08/04 02:04:19;;;;;;;13.50;4.90;;;;;;;14.39;100.00;100770.72;5028940;28;20038;-72
2023/08/04 02:06:44;;;;;;;12.15;5.05;;;;;;;14.39;100.00;100770.72;5033850;28;20033;-72
2023/08/04 02:09:12;;;;;;;12.63;4.30;;;;;;;14.44;100.00;100758.94;5031600;28;20074;-73
2023/08/04 02:11:37;;;;;;;16.45;5.00;;;;;;;14.42;100.00;100761.72;5032690;28;20476;-73
2023/08/04 02:14:03;;;;;;;10.98;4.32;;;;;;;14.40;100.00;100763.69;5034659;28;20025;-73
2023/08/04 02:16:28;;;;;;;17.35;4.70;;;;;;;14.38;100.00;100773.50;5009407;28;20029;-73
2023/08/04 02:19:04;;;;;;;13.82;5.18;;;;;;;14.42;100.00;100769.53;5016080;28;20044;-73
2023/08/04 02:21:30;;;;;;;13.75;5.55;;;;;;;14.34;100.00;100764.44;5029097;28;20029;-72
2023/08/04 02:23:55;;;;;;;20.63;5.13;;;;;;;14.36;100.00;100775.50;5032459;28;20485;-73
2023/08/04 02:26:21;;;;;;;12.88;5.03;;;;;;;14.34;100.00;100774.88;5010719;28;20783;-72
2023/08/04 02:28:46;;;;;;;15.88;5.30;;;;;;;14.30;100.00;100778.84;5006183;28;20025;-72
2023/08/04 02:31:11;;;;;;;13.13;5.43;;;;;;;14.35;100.00;100774.69;5011870;28;20052;-72
2023/08/04 02:33:37;;;;;;;11.77;5.03;;;;;;;14.31;100.00;100776.03;5029196;28;20033;-72
2023/08/04 02:36:03;;;;;;;13.38;5.10;;;;;;;14.32;100.00;100774.25;5032187;28;20036;-72
2023/08/04 02:38:28;;;;;;;13.75;5.95;;;;;;;14.28;100.00;100776.41;5033425;28;20039;-72
2023/08/04 02:41:02;;;;;;;10.65;5.45;;;;;;;14.31;100.00;100780.44;5029272;28;20095;-72
2023/08/04 02:43:28;;;;;;;15.60;5.60;;;;;;;14.29;100.00;100777.19;5028985;28;20030;-73
2023/08/04 02:45:53;;;;;;;12.43;5.32;;;;;;;14.32;100.00;100779.47;5027606;28;20606;-72
2023/08/04 02:48:19;;;;;;;16.55;5.97;;;;;;;14.35;100.00;100785.13;5030729;28;20040;-73
2023/08/04 02:50:44;;;;;;;16.50;5.15;;;;;;;14.33;100.00;100786.28;5030243;28;20040;-72
2023/08/04 02:53:09;;;;;;;20.50;5.72;;;;;;;14.32;100.00;100785.47;5017697;28;20075;-73
2023/08/04 02:55:35;;;;;;;14.82;5.35;;;;;;;14.29;100.00;100791.03;5030373;28;20029;-72
2023/08/04 02:58:00;;;;;;;11.25;5.95;;;;;;;14.33;100.00;100786.28;5026243;28;20045;-73
2023/08/04 03:00:26;;;;;;;20.02;5.00;;;;;;;14.30;100.00;100790.06;5025489;28;20024;-72
2023/08/04 03:02:51;;;;;;;13.02;5.05;;;;;;;14.29;100.00;100788.44;5027649;28;20068;-72
2023/08/04 03:05:17;;;;;;;13.77;5.05;;;;;;;14.27;100.00;100795.63;5030099;28;20021;-72
2023/08/04 03:07:42;;;;;;;20.23;5.78;;;;;;;14.26;100.00;100795.81;5009519;28;20659;-72
2023/08/04 03:10:08;;;;;;;12.60;5.07;;;;;;;14.24;100.00;100803.00;5030031;28;20040;-73
2023/08/04 03:12:33;;;;;;;15.32;5.75;;;;;;;14.20;100.00;100802.53;5032235;28;20026;-72
2023/08/04 03:14:59;;;;;;;14.80;4.70;;;;;;;14.19;100.00;100806.16;5030906;28;20064;-72
2023/08/04 03:17:24;;;;;;;17.15;5.55;;;;;;;14.14;100.00;100806.69;5026351;28;20025;-72
2023/08/04 03:19:50;;;;;;;11.13;4.43;;;;;;;14.13;100.00;100812.09;5027447;28;20614;-73
2023/08/04 03:22:15;;;;;;;13.57;5.15;;;;;;;14.09;100.00;100809.03;5030104;28;20058;-73
2023/08/04 03:24:41;;;;;;;14.95;5.10;;;;;;;14.11;100.00;100811.44;5032139;28;20036;-72
2023/08/04 03:27:06;;;;;;;15.88;4.70;;;;;;;14.08;100.00;100817.84;5027398;28;20103;-73
2023/08/04 03:29:32;;;;;;;11.63;5.10;;;;;;;14.09;100.00;100816.03;5023805;28;20034;-72
2023/08/04 03:31:57;;;;;;;9.73;4.60;;;;;;;14.07;100.00;100823.22;5030650;28;20742;-72
2023/08/04 03:34:23;;;;;;;8.60;4.68;;;;;;;14.07;100.00;100824.06;5028484;28;20411;-73
2023/08/04 03:36:48;;;;;;;12.65;5.32;;;;;;;14.02;100.00;100827.19;5030704;28;20038;-73
2023/08/04 03:39:13;;;;;;;16.77;5.28;;;;;;;14.02;100.00;100818.56;5032017;28;20029;-72
2023/08/04 03:41:39;;;;;;;14.52;4.75;;;;;;;13.99;100.00;100824.09;5033027;28;20038;-72
2023/08/04 03:44:04;;;;;;;16.60;4.93;;;;;;;13.96;100.00;100822.69;5023557;28;20028;-72
2023/08/04 03:46:30;;;;;;;14.35;5.18;;;;;;;13.97;100.00;100824.28;5031811;28;20667;-72
2023/08/04 03:48:55;;;;;;;17.02;5.63;;;;;;;14.01;100.00;100824.75;5028222;28;20431;-72
2023/08/04 03:51:22;;;;;;;17.73;5.93;;;;;;;13.98;100.00;100830.34;5024133;28;20055;-73
2023/08/04 03:53:48;;;;;;;14.95;4.75;;;;;;;13.97;100.00;100826.88;5024336;28;20033;-73
2023/08/04 03:56:13;;;;;;;15.57;6.30;;;;;;;13.93;100.00;100822.22;5033073;28;20029;-73
2023/08/04 03:58:39;;;;;;;12.65;5.45;;;;;;;13.95;100.00;100825.47;5030021;28;20034;-72
2023/08/04 04:01:04;;;;;;;18.23;5.80;;;;;;;13.93;100.00;100823.03;5024002;28;20109;-73
2023/08/04 04:03:30;;;;;;;17.42;5.93;;;;;;;13.91;100.00;100821.59;5029376;28;20116;-73
2023/08/04 04:05:55;;;;;;;12.70;5.60;;;;;;;13.91;100.00;100832.03;5028684;28;20048;-73
2023/08/04 04:08:21;;;;;;;13.25;5.07;;;;;;;13.91;100.00;100829.41;5026613;28;20092;-72
2023/08/04 04:10:48;;;;;;;17.77;6.07;;;;;;;13.92;100.00;100831.00;5029390;28;20096;-73
2023/08/04 04:13:16;;;;;;;18.45;6.38;;;;;;;13.91;100.00;100837.22;5037741;28;20033;-72
2023/08/04 04:15:41;;;;;;;18.13;4.97;;;;;;;13.88;100.00;100837.56;5034749;28;20057;-73
2023/08/04 04:18:07;;;;;;;15.82;5.63;;;;;;;13.88;100.00;100840.19;5033220;28;20040;-72
2023/08/04 04:20:32;;;;;;;14.57;6.13;;;;;;;13.92;100.00;100844.03;5033435;28;20040;-72
2023/08/04 04:22:58;;;;;;;16.90;5.97;;;;;;;13.89;100.00;100842.63;5033134;28;20604;-72
2023/08/04 04:25:23;;;;;;;20.60;6.70;;;;;;;13.90;100.00;100854.69;5037931;28;20651;-73
2023/08/04 04:27:49;;;;;;;20.05;6.57;;;;;;;13.92;100.00;100850.09;5037080;28;20044;-73
2023/08/04 04:30:14;;;;;;;16.23;7.07;;;;;;;13.92;100.00;100854.47;5033128;28;20025;-72
2023/08/04 04:32:40;;;;;;;14.25;6.38;;;;;;;13.89;100.00;100854.84;5037626;28;20041;-73
2023/08/04 04:35:05;;;;;;;17.77;6.60;;;;;;;13.87;100.00;100855.00;5032525;28;20037;-72
2023/08/04 04:37:31;;;;;;;21.38;6.78;;;;;;;13.88;100.00;100853.22;5034501;28;20338;-72
2023/08/04 04:39:56;;;;;;;12.27;5.40;;;;;;;13.88;100.00;100861.88;5042393;28;20479;-73
2023/08/04 04:42:22;;;;;;;17.88;7.32;;;;;;;13.97;100.00;100854.75;5035131;28;20048;-72
2023/08/04 04:44:47;;;;;;;14.55;6.72;;;;;;;13.95;100.00;100852.31;5035754;28;20037;-73
2023/08/04 04:47:13;;;;;;;24.85;7.65;;;;;;;13.98;100.00;100853.78;5040464;28;20021;-73
2023/08/04 04:49:38;;;;;;;17.33;6.53;;;;;;;13.98;100.00;100857.19;5037929;28;20025;-73
2023/08/04 04:52:05;;;;;;;22.80;7.55;;;;;;;13.93;100.00;100869.94;5032867;28;20059;-73
2023/08/04 04:54:31;;;;;;;21.15;7.22;;;;;;;13.99;100.00;100871.03;5037230;28;20037;-72
2023/08/04 04:56:56;;;;;;;23.90;7.65;;;;;;;13.98;100.00;100870.22;5031169;28;20092;-73
2023/08/04 04:59:21;;;;;;;22.95;7.55;;;;;;;14.00;100.00;100867.47;5029885;28;20042;-72
2023/08/04 05:01:47;;;;;;;22.70;8.32;;;;;;;14.01;100.00;100872.50;5039075;28;20033;-72
2023/08/04 05:04:12;;;;;;;22.50;7.15;;;;;;;14.08;100.00;100877.78;5031906;28;20034;-73
2023/08/04 05:06:38;;;;;;;25.35;7.88;;;;;;;14.08;100.00;100877.00;5038246;28;20036;-72
2023/08/04 05:09:04;;;;;;;16.00;6.95;;;;;;;14.11;100.00;100877.47;5034727;28;20504;-73
2023/08/04 05:11:29;;;;;;;22.20;8.45;;;;;;;14.18;100.00;100880.16;5036496;28;20033;-73
2023/08/04 05:13:54;;;;;;;23.23;8.30;;;;;;;14.16;100.00;100874.31;5036198;28;20084;-72
2023/08/04 05:16:20;;;;;;;16.98;6.43;;;;;;;14.17;100.00;100871.53;5035763;28;20091;-73
2023/08/04 05:18:45;;;;;;;17.98;6.53;;;;;;;14.21;100.00;100871.97;5034738;28;20083;-73
2023/08/04 05:21:11;;;;;;;22.63;8.05;;;;;;;14.23;100.00;100874.41;5034516;28;20022;-73
2023/08/04 05:23:36;;;;;;;18.00;8.00;;;;;;;14.25;100.00;100878.47;5037808;28;20122;-72
2023/08/04 05:26:02;;;;;;;18.80;7.18;;;;;;;14.24;100.00;100879.47;5034438;28;20033;-73
2023/08/04 05:28:30;;;;;;;21.23;7.22;;;;;;;14.29;100.00;100881.53;5036093;28;20033;-72
2023/08/04 05:31:00;;;;;;;22.92;7.38;;;;;;;14.33;100.00;100885.38;5037075;28;20049;-72
2023/08/04 05:33:27;;;;;;;19.88;7.22;;;;;;;14.37;100.00;100886.66;5011938;28;20033;-73
2023/08/04 05:35:53;;;;;;;18.10;7.18;;;;;;;14.45;100.00;100896.19;5027846;28;20040;-73
2023/08/04 05:38:19;;;;;;;17.45;7.75;;;;;;;14.45;100.00;100897.00;5025460;28;20527;-72
2023/08/04 05:40:46;;;;;;;18.92;7.43;;;;;;;14.47;100.00;100895.03;5036408;28;20033;-72
2023/08/04 05:43:12;;;;;;;21.38;7.00;;;;;;;14.52;100.00;100892.72;5026105;28;20448;-73
2023/08/04 05:45:39;;;;;;;21.63;7.68;;;;;;;14.56;100.00;100901.78;5033588;28;20025;-72
2023/08/04 05:48:05;;;;;;;13.75;6.53;;;;;;;14.59;100.00;100906.66;5029737;28;20446;-73
2023/08/04 05:50:30;;;;;;;17.92;7.25;;;;;;;14.60;100.00;100897.06;5029814;28;20042;-73
2023/08/04 05:52:57;;;;;;;21.77;7.75;;;;;;;14.63;100.00;100912.34;5027255;28;20033;-72
2023/08/04 05:55:22;;;;;;;23.10;7.22;;;;;;;14.66;100.00;100909.38;5029649;28;20911;-72
2023/08/04 05:57:49;;;;;;;19.02;6.63;;;;;;;14.68;100.00;100917.03;5031894;28;20032;-72
2023/08/04 06:00:15;;;;;;;17.27;7.10;;;;;;;14.74;100.00;100921.53;5029886;28;20037;-72
2023/08/04 06:02:43;;;;;;;22.02;6.82;;;;;;;14.76;100.00;100922.16;5030923;28;20033;-72
2023/08/04 06:05:09;;;;;;;18.33;7.20;;;;;;;14.78;100.00;100925.38;5035032;28;20060;-73
2023/08/04 06:07:34;;;;;;;13.63;6.32;;;;;;;14.82;100.00;100925.84;5029658;28;20459;-73
2023/08/04 06:10:00;;;;;;;17.45;5.65;;;;;;;14.89;100.00;100927.53;5025365;28;20049;-73
2023/08/04 06:12:25;;;;;;;19.38;6.85;;;;;;;14.93;100.00;100925.38;5033135;28;20036;-72
2023/08/04 06:14:51;;;;;;;18.58;6.88;;;;;;;15.02;100.00;100929.53;5031913;28;20037;-72
2023/08/04 06:17:16;;;;;;;15.95;6.30;;;;;;;14.99;100.00;100933.31;5028371;28;20128;-72
2023/08/04 06:19:43;;;;;;;19.70;7.55;;;;;;;14.99;100.00;100933.31;5031432;28;20041;-73
2023/08/04 06:22:09;;;;;;;13.95;5.90;;;;;;;14.97;100.00;100937.91;5029652;28;20547;-73
2023/08/04 06:24:34;;;;;;;14.90;6.38;;;;;;;15.09;100.00;100938.25;5029748;28;20171;-72
2023/08/04 06:27:00;;;;;;;23.38;6.82;;;;;;;15.07;100.00;100939.41;5029099;28;20033;-73
2023/08/04 06:29:25;;;;;;;20.10;5.85;;;;;;;15.13;100.00;100943.91;5024980;28;20024;-73
2023/08/04 06:31:51;;;;;;;14.80;6.45;;;;;;;15.16;100.00;100944.38;5027282;28;20030;-73
2023/08/04 06:34:17;;;;;;;22.25;6.70;;;;;;;15.25;100.00;100952.09;5031981;28;20120;-73
2023/08/04 06:36:46;;;;;;;21.02;6.30;;;;;;;15.27;100.00;100950.91;5030655;28;20037;-73
2023/08/04 06:39:11;;;;;;;14.60;6.47;;;;;;;15.26;100.00;100951.13;5029577;28;20683;-73
2023/08/04 06:41:36;;;;;;;16.60;5.32;;;;;;;15.21;100.00;100959.47;5027373;28;20034;-72
2023/08/04 06:44:02;;;;;;;16.45;6.43;;;;;;;15.20;100.00;100957.88;5031321;28;20561;-72
2023/08/04 06:46:27;;;;;;;15.90;6.15;;;;;;;15.17;100.00;100969.47;5029622;28;20029;-73
2023/08/04 06:48:53;;;;;;;17.00;5.93;;;;;;;15.25;100.00;100959.94;5032463;28;20033;-73
2023/08/04 06:51:18;;;;;;;19.77;5.85;;;;;;;15.30;100.00;100962.81;5030432;28;20040;-73
2023/08/04 06:53:44;;;;;;;15.20;5.82;;;;;;;15.29;100.00;100963.78;5013362;28;20026;-73
2023/08/04 06:56:09;;;;;;;19.30;6.10;;;;;;;15.38;100.00;100965.31;5028367;28;20430;-73
2023/08/04 06:58:35;;;;;;;15.07;5.82;;;;;;;15.39;100.00;100964.31;5027560;28;20025;-72
2023/08/04 07:01:00;;;;;;;11.88;4.85;;;;;;;15.42;100.00;100970.97;5030650;28;20403;-73
2023/08/04 07:03:26;;;;;;;12.40;6.85;;;;;;;15.46;100.00;100970.41;5029181;28;20087;-73
2023/08/04 07:05:51;;;;;;;17.90;6.60;;;;;;;15.55;100.00;100971.13;4996146;28;20132;-73
2023/08/04 07:08:17;;;;;;;17.77;6.30;;;;;;;15.53;100.00;100967.88;5026053;28;20519;-73
2023/08/04 07:10:42;;;;;;;16.08;6.38;;;;;;;15.57;100.00;100971.75;5024384;28;20128;-73
2023/08/04 07:13:08;;;;;;;15.70;5.85;;;;;;;15.63;100.00;100972.81;5030827;28;20037;-73
2023/08/04 07:15:33;;;;;;;18.80;6.18;;;;;;;15.62;100.00;100972.00;5028852;28;20072;-73
2023/08/04 07:17:58;;;;;;;21.23;6.40;;;;;;;15.69;100.00;100979.91;5025478;28;20029;-73
2023/08/04 07:20:24;;;;;;;13.10;5.53;;;;;;;15.71;100.00;100989.19;5030186;28;20542;-73
2023/08/04 07:22:50;;;;;;;14.18;6.03;;;;;;;15.81;100.00;100988.13;5031479;28;20048;-73
2023/08/04 07:25:15;;;;;;;15.60;5.70;;;;;;;15.86;100.00;100996.19;5028792;28;20397;-73
2023/08/04 07:27:42;;;;;;;14.57;6.30;;;;;;;15.99;100.00;100995.53;5023795;28;20045;-73
2023/08/04 07:30:07;;;;;;;20.35;5.60;;;;;;;15.98;100.00;100994.72;5028915;28;20075;-72
2023/08/04 07:32:33;;;;;;;16.23;5.90;;;;;;;16.02;100.00;100995.16;5025180;28;20492;-72
2023/08/04 07:34:59;;;;;;;16.85;5.90;;;;;;;16.03;100.00;100991.53;5029867;28;20029;-72
2023/08/04 07:37:27;;;;;;;18.20;6.57;;;;;;;16.21;100.00;100999.75;5026208;28;20461;-73
2023/08/04 07:39:53;;;;;;;10.23;5.60;;;;;;;16.30;100.00;100998.63;5029500;28;20053;-73
2023/08/04 07:42:18;;;;;;;17.67;5.90;;;;;;;16.34;100.00;100997.25;5028342;28;20400;-70
2023/08/04 07:44:44;;;;;;;19.23;6.18;;;;;;;16.38;100.00;101000.28;5024453;28;20042;-73
2023/08/04 07:47:09;;;;;;;15.45;5.95;;;;;;;16.54;100.00;100999.22;5022896;28;20025;-72
2023/08/04 07:49:35;;;;;;;17.15;5.88;;;;;;;16.72;100.00;100998.72;5022891;28;20029;-71
2023/08/04 07:52:00;;;;;;;17.05;5.75;;;;;;;17.02;100.00;100995.91;5029810;28;20044;-72
2023/08/04 07:54:25;;;;;;;13.75;6.15;;;;;;;17.41;100.00;100999.72;5022086;28;20040;-71
2023/08/04 07:56:51;;;;;;;14.60;7.25;;;;;;;17.82;100.00;100993.56;5025867;28;20392;-74
2023/08/04 07:59:16;;;;;;;18.23;5.50;;;;;;;17.97;99.39;100993.41;5022722;28;20029;-70
2023/08/04 08:01:42;;;;;;;13.00;5.75;;;;;;;18.03;97.97;100992.63;5022654;28;20041;-73
2023/08/04 08:04:07;;;;;;;16.67;4.85;;;;;;;18.12;97.53;100994.06;5023276;28;20052;-72
2023/08/04 08:06:33;;;;;;;20.40;6.00;;;;;;;18.23;98.11;100996.09;5026324;28;20545;-71
2023/08/04 08:08:58;;;;;;;14.98;6.45;;;;;;;19.04;93.65;100988.91;5033298;28;20033;-73
2023/08/04 08:11:24;;;;;;;14.40;5.05;;;;;;;19.93;88.93;100987.28;5029711;28;20045;-72
2023/08/04 08:13:49;;;;;;;9.63;4.72;;;;;;;20.57;85.06;100989.78;5025093;28;20025;-73
2023/08/04 08:16:17;;;;;;;13.32;4.80;;;;;;;20.63;84.06;101001.31;5025448;28;21229;-73
2023/08/04 08:18:43;;;;;;;13.05;4.25;;;;;;;20.17;84.70;101000.66;5027191;28;20041;-73
2023/08/04 08:21:09;;;;;;;14.40;4.65;;;;;;;20.38;83.79;101000.28;5021571;28;20063;-73
2023/08/04 08:23:36;;;;;;;12.80;3.90;;;;;;;21.34;83.44;100992.78;5025236;28;20104;-71
2023/08/04 08:26:03;;;;;;;16.45;4.72;;;;;;;20.80;81.89;101000.50;5029354;28;20048;-70
2023/08/04 08:28:29;;;;;;;16.25;4.28;;;;;;;21.04;80.46;100997.19;5022580;28;20041;-73
2023/08/04 08:30:54;;;;;;;11.55;3.92;;;;;;;21.51;78.20;101000.91;5028959;28;20042;-73
2023/08/04 08:33:20;;;;;;;12.65;3.53;;;;;;;20.88;80.41;101004.69;5028863;28;20033;-73
2023/08/04 08:35:45;;;;;;;13.98;4.40;;;;;;;20.32;81.07;101011.66;5025371;28;20044;-71
2023/08/04 08:38:11;;;;;;;10.40;3.05;;;;;;;19.77;83.39;101019.34;5024722;28;20036;-73
2023/08/04 08:40:36;;;;;;;10.48;3.67;;;;;;;19.58;85.63;101021.03;5027216;28;20033;-73
2023/08/04 08:43:02;;;;;;;9.45;3.50;;;;;;;19.56;86.24;101008.09;5028087;28;20055;-72
2023/08/04 08:45:28;;;;;;;7.55;2.92;;;;;;;19.94;84.03;101015.19;5033146;28;20037;-73
2023/08/04 08:47:55;;;;;;;8.80;2.95;;;;;;;20.05;83.82;101018.16;5025077;28;20041;-72
2023/08/04 08:50:26;;;;;;;10.70;3.10;;;;;;;20.36;81.72;101017.28;5025050;28;20106;-72
2023/08/04 08:53:01;;;;;;;9.93;2.70;;;;;;;20.26;80.74;101017.78;5028387;28;20048;-73
2023/08/04 08:55:27;;;;;;;9.93;2.72;;;;;;;20.12;80.90;101025.00;5031490;28;20056;-74
2023/08/04 08:57:55;;;;;;;13.25;2.58;;;;;;;19.85;82.81;101024.34;5030054;28;20125;-73
2023/08/04 09:00:22;;;;;;;11.27;3.17;;;;;;;19.57;84.27;101030.75;5034941;28;20088;-73
2023/08/04 09:02:48;;;;;;;12.20;3.05;;;;;;;19.39;86.58;101034.06;5029553;28;20803;-72
2023/08/04 09:05:14;;;;;;;7.38;2.85;;;;;;;19.10;86.89;101031.94;5030451;28;20033;-73
2023/08/04 09:07:40;;;;;;;7.68;2.75;;;;;;;19.09;87.56;101036.38;5031022;28;20044;-74
2023/08/04 09:10:07;;;;;;;6.90;2.78;;;;;;;19.18;86.88;101035.16;5027968;28;20139;-73
2023/08/04 09:12:33;;;;;;;5.25;2.45;;;;;;;19.08;86.77;101032.16;5030760;28;20033;-72
2023/08/04 09:14:58;;;;;;;6.22;2.78;;;;;;;19.22;87.02;101032.91;5034073;28;20492;-73
2023/08/04 09:17:31;;;;;;;6.38;2.58;;;;;;;19.23;85.34;101032.72;5033633;28;20107;-71
2023/08/04 09:19:57;;;;;;;8.02;2.90;;;;;;;19.31;83.66;101034.31;5029675;28;20021;-70
2023/08/04 09:22:24;;;;;;;9.15;2.42;;;;;;;19.38;80.75;101037.72;5032399;28;20042;-73
2023/08/04 09:24:59;;;;;;;4.97;2.13;;;;;;;19.45;80.65;101032.41;5030844;28;20071;-72
2023/08/04 09:27:28;;;;;;;5.60;2.20;;;;;;;19.44;78.63;101039.50;5032589;28;20053;-73
2023/08/04 09:29:59;;;;;;;9.23;3.10;;;;;;;19.57;81.88;101032.56;5037790;28;20069;-73
2023/08/04 09:32:24;;;;;;;9.30;2.78;;;;;;;19.66;81.65;101031.31;5031859;28;20496;-72
2023/08/04 09:35:05;;;;;;;10.73;2.70;;;;;;;19.69;81.25;101033.53;5034220;28;20036;-73
2023/08/04 09:37:35;;;;;;;8.00;2.40;;;;;;;19.67;82.01;101032.13;5026473;28;20519;-72
2023/08/04 09:40:11;;;;;;;6.88;2.60;;;;;;;19.62;82.62;101033.53;5030043;28;20025;-73
2023/08/04 09:42:37;;;;;;;10.38;2.40;;;;;;;19.64;81.89;101036.78;5030827;28;20701;-73
2023/08/04 09:45:03;;;;;;;5.43;2.55;;;;;;;19.94;81.21;101030.97;5029034;28;20057;-73
2023/08/04 09:47:28;;;;;;;7.90;2.53;;;;;;;20.39;78.43;101035.31;5031307;28;20030;-73
2023/08/04 09:49:54;;;;;;;6.32;2.20;;;;;;;20.49;73.98;101032.19;5033092;28;20503;-72
2023/08/04 09:52:24;;;;;;;4.50;1.77;;;;;;;20.50;72.82;101031.19;5028684;28;20037;-72
2023/08/04 09:54:55;;;;;;;5.30;2.03;;;;;;;20.46;74.16;101040.53;5030378;28;20040;-72
2023/08/04 09:57:24;;;;;;;6.35;2.15;;;;;;;20.32;73.87;101037.97;5031532;28;20032;-72
2023/08/04 09:59:51;;;;;;;6.53;2.10;;;;;;;20.33;74.97;101042.25;5029987;28;20600;-73
2023/08/04 10:02:18;;;;;;;3.92;1.75;;;;;;;20.33;73.67;101036.19;5032764;28;20045;-73
2023/08/04 10:04:50;;;;;;;5.55;1.80;;;;;;;20.41;70.37;101036.69;5033156;28;20488;-73
2023/08/04 10:07:19;;;;;;;9.05;2.38;;;;;;;20.72;71.38;101027.16;5028905;28;20041;-73
2023/08/04 10:09:48;;;;;;;3.35;1.60;;;;;;;20.84;70.22;101032.50;5030042;28;20029;-72
2023/08/04 10:12:15;;;;;;;8.02;1.58;;;;;;;20.85;69.76;101034.13;5029420;28;20037;-73
2023/08/04 10:14:42;;;;;;;3.13;2.47;;;;;;;20.99;68.71;101026.88;5027068;28;20041;-73
2023/08/04 10:17:08;;;;;;;7.80;1.90;;;;;;;21.12;68.88;101031.19;5027495;28;20361;-73
2023/08/04 10:19:34;;;;;;;5.25;1.70;;;;;;;21.16;69.54;101024.44;5030633;28;20064;-73
2023/08/04 10:22:05;;;;;;;6.05;1.60;;;;;;;21.16;71.82;101033.16;5029903;28;20124;-73
2023/08/04 10:24:34;;;;;;;7.28;1.67;;;;;;;21.03;74.00;101033.31;5034075;28;20499;-73
2023/08/04 10:27:04;;;;;;;3.90;1.75;;;;;;;20.94;71.81;101034.63;5022904;28;20033;-72
2023/08/04 10:29:32;;;;;;;8.48;1.95;;;;;;;20.86;69.91;101038.34;5028607;28;20037;-72
2023/08/04 10:31:58;;;;;;;4.75;1.88;;;;;;;20.73;71.88;101044.56;5023520;28;20033;-72
2023/08/04 10:34:29;;;;;;;4.38;2.20;;;;;;;20.92;71.71;101037.47;5027397;28;20055;-73
2023/08/04 10:37:04;;;;;;;6.38;1.85;;;;;;;21.04;73.18;101042.00;5029786;28;20025;-72
2023/08/04 10:39:36;;;;;;;2.92;1.58;;;;;;;21.45;72.27;101044.00;5030884;28;20025;-74
2023/08/04 10:42:11;;;;;;;7.13;2.03;;;;;;;21.77;70.01;101030.59;5021777;28;20049;-72
2023/08/04 10:44:48;;;;;;;5.82;2.13;;;;;;;21.84;69.17;101039.22;5007383;28;20073;-73
2023/08/04 10:47:14;;;;;;;6.00;2.00;;;;;;;22.08;67.88;101034.81;5023621;28;20412;-72
2023/08/04 10:49:40;;;;;;;4.25;1.80;;;;;;;21.88;67.40;101034.28;5024319;28;20037;-74
2023/08/04 10:52:05;;;;;;;3.42;1.63;;;;;;;22.06;68.21;101034.22;5027462;28;20033;-73
2023/08/04 10:54:31;;;;;;;4.95;1.60;;;;;;;21.98;67.10;101039.81;4994083;28;20051;-72
2023/08/04 10:56:57;;;;;;;5.63;1.85;;;;;;;21.95;68.23;101035.81;5024974;28;20426;-74
2023/08/04 10:59:22;;;;;;;6.38;1.67;;;;;;;21.70;69.10;101045.69;5007290;28;20037;-74
2023/08/04 11:01:48;;;;;;;4.20;1.80;;;;;;;21.55;71.72;101041.66;5023619;28;20033;-74
2023/08/04 11:04:17;;;;;;;6.38;2.10;;;;;;;21.51;69.97;101043.13;5021601;28;20033;-73
2023/08/04 11:06:44;;;;;;;4.85;2.15;;;;;;;21.35;72.54;101049.75;5026320;28;20036;-74
2023/08/04 11:09:10;;;;;;;4.63;1.92;;;;;;;21.20;72.26;101049.34;5024553;28;20447;-72
2023/08/04 11:11:36;;;;;;;4.38;1.60;;;;;;;21.20;70.29;101052.78;5025594;28;20554;-71